createdAt,value
2023-04-28T00:00:31.780Z,6.49
2023-04-28T00:02:58.555Z,6.46
2023-04-28T00:05:26.190Z,6.45
2023-04-28T00:07:53.191Z,6.43
2023-04-28T00:10:20.075Z,6.40
2023-04-28T00:12:46.669Z,6.38
2023-04-28T00:15:13.358Z,6.37
2023-04-28T00:17:40.332Z,6.36
2023-04-28T00:20:07.870Z,6.36
2023-04-28T00:22:34.977Z,6.36
2023-04-28T00:25:01.839Z,6.35
2023-04-28T00:27:28.857Z,6.33
2023-04-28T00:29:55.703Z,6.33
2023-04-28T00:32:22.503Z,6.32
2023-04-28T00:34:49.139Z,6.33
2023-04-28T00:37:15.885Z,6.33
2023-04-28T00:39:46.756Z,6.33
2023-04-28T00:42:14.024Z,6.33
2023-04-28T00:44:41.037Z,6.33
2023-04-28T00:47:09.565Z,6.34
2023-04-28T00:49:36.212Z,6.35
2023-04-28T00:52:04.412Z,6.34
2023-04-28T00:54:32.888Z,6.33
2023-04-28T00:56:59.626Z,6.33
2023-04-28T00:59:26.321Z,6.33
2023-04-28T01:01:54.765Z,6.32
2023-04-28T01:04:21.701Z,6.31
2023-04-28T01:06:50.420Z,6.30
2023-04-28T01:09:17.088Z,6.29
2023-04-28T01:11:43.841Z,6.28
2023-04-28T01:14:12.625Z,6.28
2023-04-28T01:16:40.709Z,6.28
2023-04-28T01:19:07.753Z,6.27
2023-04-28T01:21:35.545Z,6.24
2023-04-28T01:24:13.289Z,6.21
2023-04-28T01:26:40.277Z,6.19
2023-04-28T01:29:07.004Z,6.18
2023-04-28T01:31:33.679Z,6.16
2023-04-28T01:34:00.427Z,6.15
2023-04-28T01:36:27.940Z,6.13
2023-04-28T01:38:54.867Z,6.11
2023-04-28T01:41:21.900Z,6.09
2023-04-28T01:43:48.599Z,6.08
2023-04-28T01:46:15.359Z,6.07
2023-04-28T01:48:42.024Z,6.06
2023-04-28T01:51:08.807Z,6.05
2023-04-28T01:53:37.711Z,6.04
2023-04-28T01:56:04.500Z,6.04
2023-04-28T01:58:31.068Z,6.03
2023-04-28T02:00:58.149Z,6.01
2023-04-28T02:03:25.387Z,5.99
2023-04-28T02:05:52.354Z,5.97
2023-04-28T02:08:19.188Z,5.96
2023-04-28T02:10:45.876Z,5.95
2023-04-28T02:13:12.809Z,5.93
2023-04-28T02:15:42.775Z,5.91
2023-04-28T02:18:09.923Z,5.88
2023-04-28T02:20:39.608Z,5.87
2023-04-28T02:23:08.204Z,5.84
2023-04-28T02:25:34.908Z,5.82
2023-04-28T02:28:02.350Z,5.79
2023-04-28T02:30:29.384Z,5.76
2023-04-28T02:32:56.027Z,5.74
2023-04-28T02:35:22.725Z,5.71
2023-04-28T02:37:49.751Z,5.69
2023-04-28T02:40:18.460Z,5.67
2023-04-28T02:42:45.555Z,5.65
2023-04-28T02:45:12.268Z,5.63
2023-04-28T02:47:39.790Z,5.59
2023-04-28T02:50:07.735Z,5.56
2023-04-28T02:52:34.823Z,5.55
2023-04-28T02:55:03.171Z,5.53
2023-04-28T02:57:30.152Z,5.52
2023-04-28T02:59:56.873Z,5.52
2023-04-28T03:02:24.597Z,5.51
2023-04-28T03:04:51.287Z,5.49
2023-04-28T03:07:18.091Z,5.48
2023-04-28T03:09:45.857Z,5.47
2023-04-28T03:12:12.524Z,5.45
2023-04-28T03:14:39.110Z,5.42
2023-04-28T03:17:05.841Z,5.40
2023-04-28T03:19:32.748Z,5.39
2023-04-28T03:21:59.414Z,5.38
2023-04-28T03:24:26.103Z,5.37
2023-04-28T03:26:52.728Z,5.35
2023-04-28T03:29:19.611Z,5.34
2023-04-28T03:31:46.495Z,5.34
2023-04-28T03:34:13.880Z,5.33
2023-04-28T03:36:40.864Z,5.33
2023-04-28T03:39:13.340Z,5.31
2023-04-28T03:41:40.160Z,5.29
2023-04-28T03:44:26.080Z,5.27
2023-04-28T03:46:52.923Z,5.26
2023-04-28T03:49:19.631Z,5.25
2023-04-28T03:51:47.339Z,5.26
2023-04-28T03:54:15.032Z,5.27
2023-04-28T03:56:41.889Z,5.28
2023-04-28T03:59:11.238Z,5.25
2023-04-28T04:01:37.865Z,5.22
2023-04-28T04:04:05.269Z,5.19
2023-04-28T04:06:32.137Z,5.17
2023-04-28T04:08:59.968Z,5.17
2023-04-28T04:11:26.712Z,5.18
2023-04-28T04:13:53.647Z,5.18
2023-04-28T04:16:22.001Z,5.19
2023-04-28T04:18:48.880Z,5.21
2023-04-28T04:21:20.437Z,5.22
2023-04-28T04:23:47.895Z,5.23
2023-04-28T04:26:15.147Z,5.26
2023-04-28T04:28:41.875Z,5.29
2023-04-28T04:31:09.259Z,5.32
2023-04-28T04:33:37.153Z,5.39
2023-04-28T04:36:04.655Z,5.48
2023-04-28T04:38:31.853Z,5.57
2023-04-28T04:41:00.168Z,5.64
2023-04-28T04:43:27.240Z,5.70
2023-04-28T04:45:54.193Z,5.82
2023-04-28T04:48:20.867Z,5.96
2023-04-28T04:50:47.664Z,6.08
2023-04-28T04:53:16.505Z,6.14
2023-04-28T04:55:43.630Z,6.15
2023-04-28T04:58:10.963Z,6.15
2023-04-28T05:00:57.591Z,6.17
2023-04-28T05:03:24.323Z,6.19
2023-04-28T05:05:51.134Z,6.18
2023-04-28T05:08:30.511Z,6.16
2023-04-28T05:10:57.249Z,6.15
2023-04-28T05:13:24.386Z,6.16
2023-04-28T05:15:56.190Z,6.17
2023-04-28T05:18:41.580Z,6.23
2023-04-28T05:21:11.083Z,6.28
2023-04-28T05:23:37.682Z,6.33
2023-04-28T05:26:04.962Z,6.42
2023-04-28T05:28:31.598Z,6.53
2023-04-28T05:30:58.601Z,6.67
2023-04-28T05:33:26.099Z,6.81
2023-04-28T05:35:52.983Z,6.97
2023-04-28T05:38:21.554Z,7.13
2023-04-28T05:40:50.217Z,7.30
2023-04-28T05:43:17.194Z,7.47
2023-04-28T05:45:44.124Z,7.64
2023-04-28T05:48:11.040Z,7.82
2023-04-28T05:50:39.108Z,7.97
2023-04-28T05:53:06.956Z,8.13
2023-04-28T05:55:35.797Z,8.30
2023-04-28T05:58:02.853Z,8.46
2023-04-28T06:00:29.692Z,8.61
2023-04-28T06:02:58.594Z,8.79
2023-04-28T06:05:25.947Z,8.96
2023-04-28T06:07:55.548Z,9.11
2023-04-28T06:10:22.623Z,9.28
2023-04-28T06:12:49.349Z,9.45
2023-04-28T06:15:15.983Z,9.60
2023-04-28T06:17:42.962Z,9.76
2023-04-28T06:20:11.866Z,9.92
2023-04-28T06:22:39.010Z,9.99
2023-04-28T06:25:06.979Z,10.11
2023-04-28T06:27:43.694Z,10.25
2023-04-28T06:30:17.004Z,10.37
2023-04-28T06:32:43.702Z,10.51
2023-04-28T06:35:10.412Z,10.62
2023-04-28T06:37:38.058Z,10.75
2023-04-28T06:40:05.389Z,10.83
2023-04-28T06:42:33.373Z,10.86
2023-04-28T06:45:08.305Z,10.91
2023-04-28T06:47:37.089Z,10.96
2023-04-28T06:50:07.196Z,11.06
2023-04-28T06:52:39.238Z,11.09
2023-04-28T06:55:08.742Z,11.14
2023-04-28T06:57:37.256Z,11.26
2023-04-28T07:00:04.720Z,11.38
2023-04-28T07:02:31.678Z,11.45
2023-04-28T07:04:58.529Z,11.51
2023-04-28T07:07:25.853Z,11.62
2023-04-28T07:09:52.880Z,11.75
2023-04-28T07:12:20.590Z,11.91
2023-04-28T07:14:47.408Z,12.01
2023-04-28T07:17:14.282Z,12.08
2023-04-28T07:19:40.916Z,12.22
2023-04-28T07:22:07.487Z,12.33
2023-04-28T07:24:34.318Z,12.46
2023-04-28T07:27:04.624Z,12.59
2023-04-28T07:29:33.699Z,12.70
2023-04-28T07:32:01.308Z,12.80
2023-04-28T07:34:28.277Z,12.96
2023-04-28T07:36:55.281Z,13.13
2023-04-28T07:39:22.046Z,13.32
2023-04-28T07:41:48.816Z,13.46
2023-04-28T07:44:15.608Z,13.58
2023-04-28T07:46:42.509Z,13.63
2023-04-28T07:49:09.354Z,13.64
2023-04-28T07:51:35.976Z,13.68
2023-04-28T07:54:02.760Z,13.72
2023-04-28T07:56:29.397Z,13.79
2023-04-28T08:12:48.904Z,13.94
2023-04-28T08:15:18.557Z,14.14
2023-04-28T08:17:45.656Z,14.33
2023-04-28T08:20:15.303Z,14.49
2023-04-28T08:22:42.319Z,14.60
2023-04-28T08:25:12.158Z,14.69
2023-04-28T08:27:40.245Z,14.68
2023-04-28T08:30:12.798Z,14.64
2023-04-28T08:32:42.072Z,14.77
2023-04-28T08:35:10.004Z,14.96
2023-04-28T08:37:39.607Z,15.20
2023-04-28T08:40:10.240Z,15.46
2023-04-28T08:42:40.563Z,15.62
2023-04-28T08:45:08.825Z,15.67
2023-04-28T08:47:40.855Z,15.64
2023-04-28T08:50:08.476Z,15.52
2023-04-28T08:52:35.631Z,15.39
2023-04-28T08:55:06.678Z,15.37
2023-04-28T08:57:40.693Z,15.36
2023-04-28T09:00:08.706Z,15.33
2023-04-28T09:02:37.957Z,15.40
2023-04-28T09:05:07.460Z,15.49
2023-04-28T09:07:35.022Z,15.49
2023-04-28T09:10:21.496Z,15.57
2023-04-28T09:12:49.415Z,15.61
2023-04-28T09:15:27.784Z,15.62
2023-04-28T09:17:54.794Z,15.64
2023-04-28T09:20:25.828Z,15.73
2023-04-28T09:22:53.662Z,15.71
2023-04-28T09:25:22.409Z,15.65
2023-04-28T09:27:50.069Z,15.56
2023-04-28T09:30:20.218Z,15.36
2023-04-28T09:33:04.720Z,15.25
2023-04-28T09:35:45.815Z,15.08
2023-04-28T09:38:15.679Z,14.89
2023-04-28T09:40:55.568Z,14.78
2023-04-28T09:43:32.478Z,14.87
2023-04-28T09:46:01.674Z,15.10
2023-04-28T09:48:30.924Z,15.33
2023-04-28T09:50:59.421Z,15.45
2023-04-28T09:53:27.434Z,15.58
2023-04-28T09:55:55.243Z,15.59
2023-04-28T09:58:23.048Z,15.54
2023-04-28T10:00:56.951Z,15.48
2023-04-28T10:03:29.661Z,15.45
2023-04-28T10:06:00.486Z,15.47
2023-04-28T10:08:28.306Z,15.51
2023-04-28T10:10:55.205Z,15.51
2023-04-28T10:13:24.415Z,15.54
2023-04-28T10:15:54.718Z,15.67
2023-04-28T10:18:23.156Z,15.66
2023-04-28T12:43:27.076Z,14.81
2023-04-28T12:45:55.365Z,14.62
2023-04-28T12:48:24.229Z,14.44
2023-04-28T12:50:51.174Z,14.27
2023-04-28T12:53:18.690Z,14.13
2023-04-28T12:55:45.656Z,14.09
2023-04-28T12:58:12.506Z,14.16
2023-04-28T13:00:39.366Z,14.26
2023-04-28T13:03:06.819Z,14.35
2023-04-28T13:05:35.146Z,14.36
2023-04-28T13:08:01.999Z,14.38
2023-04-28T13:10:29.849Z,14.34
2023-04-28T13:12:56.785Z,14.28
2023-04-28T13:15:23.538Z,14.27
2023-04-28T13:17:50.436Z,14.19
2023-04-28T13:20:17.322Z,14.14
2023-04-28T13:22:44.077Z,14.09
2023-04-28T13:25:11.596Z,14.08
2023-04-28T13:27:39.207Z,14.10
2023-04-28T13:30:09.010Z,14.18
2023-04-28T13:32:36.205Z,14.27
2023-04-28T13:35:03.727Z,14.39
2023-04-28T13:37:30.682Z,14.44
2023-04-28T13:39:58.240Z,14.41
2023-04-28T13:42:25.019Z,14.43
2023-04-28T13:44:51.970Z,14.39
2023-04-28T13:47:18.824Z,14.31
2023-04-28T13:49:45.676Z,14.24
2023-04-28T13:52:12.465Z,14.24
2023-04-28T13:54:39.149Z,14.21
2023-04-28T13:57:06.537Z,14.20
2023-04-28T13:59:34.080Z,14.18
2023-04-28T14:02:01.146Z,14.11
2023-04-28T14:04:28.224Z,13.97
2023-04-28T14:06:55.371Z,13.81
2023-04-28T14:09:23.322Z,13.67
2023-04-28T14:11:50.070Z,13.53
2023-04-28T14:14:16.906Z,13.41
2023-04-28T14:16:43.864Z,13.33
2023-04-28T14:19:11.106Z,13.31
2023-04-28T14:21:38.241Z,13.33
2023-04-28T14:24:05.186Z,13.34
2023-04-28T14:26:31.913Z,13.36
2023-04-28T14:29:01.186Z,13.39
2023-04-28T14:31:28.579Z,13.42
2023-04-28T14:33:55.564Z,13.44
2023-04-28T14:36:22.306Z,13.49
2023-04-28T14:38:49.082Z,13.50
2023-04-28T14:41:15.927Z,13.49
2023-04-28T14:43:43.464Z,13.49
2023-04-28T14:46:11.188Z,13.47
2023-04-28T14:48:38.208Z,13.49
2023-04-28T14:51:05.673Z,13.49
2023-04-28T14:53:32.485Z,13.45
2023-04-28T14:56:10.857Z,13.45
2023-04-28T14:58:44.601Z,13.40
2023-04-28T15:01:11.368Z,13.34
2023-04-28T15:03:38.405Z,13.32
2023-04-28T15:06:05.668Z,13.33
2023-04-28T15:08:33.453Z,13.29
2023-04-28T15:11:00.397Z,13.20
2023-04-28T15:13:28.645Z,13.14
2023-04-28T15:15:56.240Z,13.07
2023-04-28T15:18:23.414Z,12.94
2023-04-28T15:20:51.952Z,12.83
2023-04-28T15:23:19.938Z,12.78
2023-04-28T15:25:47.260Z,12.76
2023-04-28T15:28:14.095Z,12.72
2023-04-28T15:30:40.988Z,12.69
2023-04-28T15:33:07.860Z,12.67
2023-04-28T15:35:35.093Z,12.64
2023-04-28T15:38:01.993Z,12.61
2023-04-28T15:40:28.972Z,12.58
2023-04-28T15:42:56.054Z,12.49
2023-04-28T15:45:22.998Z,12.40
2023-04-28T15:47:50.806Z,12.36
2023-04-28T15:50:19.829Z,12.33
2023-04-28T15:52:47.560Z,12.25
2023-04-28T15:55:15.382Z,12.17
2023-04-28T15:57:42.750Z,12.10
2023-04-28T16:00:10.320Z,12.05
2023-04-28T16:02:41.094Z,12.00
2023-04-28T16:05:08.713Z,11.94
2023-04-28T16:07:41.085Z,11.93
2023-04-28T16:10:09.922Z,11.91
2023-04-28T16:12:36.868Z,11.86
2023-04-28T16:15:04.198Z,11.80
2023-04-28T16:17:31.081Z,11.74
2023-04-28T16:19:57.970Z,11.64
2023-04-28T16:22:25.329Z,11.56
2023-04-28T16:24:53.857Z,11.50
2023-04-28T16:27:20.924Z,11.45
2023-04-28T16:29:47.695Z,11.40
2023-04-28T16:32:14.862Z,11.32
2023-04-28T16:34:41.952Z,11.26
2023-04-28T16:37:09.062Z,11.19
2023-04-28T16:39:35.931Z,11.12
2023-04-28T16:42:03.046Z,11.06
2023-04-28T16:44:30.660Z,10.99
2023-04-28T16:46:58.250Z,10.97
2023-04-28T16:49:25.126Z,10.93
2023-04-28T16:52:02.246Z,10.86
2023-04-28T16:54:29.542Z,10.78
2023-04-28T16:56:59.880Z,10.69
2023-04-28T16:59:29.736Z,10.63
2023-04-28T17:01:57.593Z,10.59
2023-04-28T17:04:25.220Z,10.51
2023-04-28T17:06:53.058Z,10.47
2023-04-28T17:09:20.780Z,10.39
2023-04-28T17:11:47.996Z,10.29
2023-04-28T17:14:15.337Z,10.21
2023-04-28T17:16:46.919Z,10.14
2023-04-28T17:19:14.501Z,10.09
2023-04-28T17:21:41.431Z,10.03
2023-04-28T17:24:09.252Z,9.98
2023-04-28T17:26:36.514Z,9.92
2023-04-28T17:29:06.409Z,9.86
2023-04-28T17:31:33.565Z,9.80
2023-04-28T17:34:00.480Z,9.74
2023-04-28T17:36:28.847Z,9.67
2023-04-28T17:38:55.740Z,9.62
2023-04-28T17:41:27.433Z,9.56
2023-04-28T17:43:54.404Z,9.49
2023-04-28T17:46:21.980Z,9.44
2023-04-28T17:48:49.237Z,9.39
2023-04-28T17:51:16.032Z,9.33
2023-04-28T17:53:42.833Z,9.26
2023-04-28T17:56:09.788Z,9.20
2023-04-28T17:58:37.494Z,9.16
2023-04-28T18:01:05.518Z,9.11
2023-04-28T18:03:34.817Z,9.06
2023-04-28T18:06:02.021Z,9.03
2023-04-28T18:08:29.200Z,8.98
2023-04-28T18:10:59.012Z,8.92
2023-04-28T18:13:26.668Z,8.85
2023-04-28T18:15:53.719Z,8.82
2023-04-28T18:18:20.748Z,8.78
2023-04-28T18:20:47.870Z,8.74
2023-04-28T18:23:15.355Z,8.70
2023-04-28T18:25:42.218Z,8.67
2023-04-28T18:28:10.506Z,8.63
2023-04-28T18:30:40.174Z,8.56
2023-04-28T18:33:07.569Z,8.51
2023-04-28T18:35:35.111Z,8.46
2023-04-28T18:38:02.168Z,8.41
2023-04-28T18:40:33.711Z,8.37
2023-04-28T18:43:02.108Z,8.32
2023-04-28T18:45:34.391Z,8.27
2023-04-28T18:48:02.704Z,8.24
2023-04-28T18:50:30.243Z,8.20
2023-04-28T18:52:57.878Z,8.17
2023-04-28T18:55:24.925Z,8.14
2023-04-28T18:57:52.158Z,8.13
2023-04-28T19:00:19.552Z,8.09
2023-04-28T19:02:47.201Z,8.06
2023-04-28T19:05:14.400Z,8.02
2023-04-28T19:07:42.175Z,7.98
2023-04-28T19:10:09.935Z,7.94
2023-04-28T19:12:37.120Z,7.91
2023-04-28T19:15:04.675Z,7.87
2023-04-28T19:17:31.933Z,7.84
2023-04-28T19:19:58.946Z,7.79
2023-04-28T19:22:33.207Z,7.75
2023-04-28T19:25:00.464Z,7.71
2023-04-28T19:27:32.384Z,7.68
2023-04-28T19:30:00.158Z,7.65
2023-04-28T19:32:27.314Z,7.61
2023-04-28T19:34:55.720Z,7.57
2023-04-28T19:37:23.146Z,7.53
2023-04-28T19:39:52.908Z,7.49
2023-04-28T19:42:19.913Z,7.44
2023-04-28T19:44:47.343Z,7.41
2023-04-28T19:47:25.549Z,7.37
2023-04-28T19:49:55.739Z,7.31
2023-04-28T19:52:22.925Z,7.27
2023-04-28T19:54:49.915Z,7.23
2023-04-28T19:57:17.228Z,7.17
2023-04-28T19:59:47.013Z,7.13
2023-04-28T20:02:14.279Z,7.08
2023-04-28T20:04:41.962Z,7.02
2023-04-28T20:07:10.800Z,6.97
2023-04-28T20:09:40.738Z,6.92
2023-04-28T20:12:08.937Z,6.89
2023-04-28T20:14:35.934Z,6.85
2023-04-28T20:17:05.653Z,6.82
2023-04-28T20:19:32.827Z,6.80
2023-04-28T20:22:02.491Z,6.77
2023-04-28T20:24:29.550Z,6.76
2023-04-28T20:26:56.657Z,6.75
2023-04-28T20:29:24.325Z,6.74
2023-04-28T20:31:51.667Z,6.73
2023-04-28T20:34:20.894Z,6.70
2023-04-28T20:36:50.978Z,6.68
2023-04-28T20:39:17.962Z,6.65
2023-04-28T20:41:44.968Z,6.62
2023-04-28T20:44:12.098Z,6.60
2023-04-28T20:46:39.360Z,6.60
2023-04-28T20:49:06.713Z,6.58
2023-04-28T20:51:37.558Z,6.55
2023-04-28T20:54:07.519Z,6.52
2023-04-28T20:56:34.703Z,6.48
2023-04-28T20:59:02.022Z,6.47
2023-04-28T21:01:28.958Z,6.46
2023-04-28T21:03:56.607Z,6.44
2023-04-28T21:06:23.704Z,6.43
2023-04-28T21:08:50.940Z,6.41
2023-04-28T21:11:20.492Z,6.38
2023-04-28T21:13:47.642Z,6.35
2023-04-28T21:16:20.981Z,6.32
2023-04-28T21:18:49.396Z,6.29
2023-04-28T21:21:16.974Z,6.24
2023-04-28T21:23:44.411Z,6.20
2023-04-28T21:26:11.519Z,6.18
2023-04-28T21:28:40.056Z,6.15
2023-04-28T21:31:07.504Z,6.13
2023-04-28T21:33:34.562Z,6.11
2023-04-28T21:36:08.145Z,6.10
2023-04-28T21:38:36.966Z,6.07
2023-04-28T21:41:03.815Z,6.03
2023-04-28T21:43:30.956Z,6.01
2023-04-28T21:45:57.887Z,5.97
2023-04-28T21:48:25.112Z,5.96
2023-04-28T21:50:52.224Z,5.94
2023-04-28T21:53:19.445Z,5.93
2023-04-28T21:55:47.540Z,5.90
2023-04-28T21:58:15.381Z,5.86
2023-04-28T22:00:43.856Z,5.84
2023-04-28T22:03:11.339Z,5.81
2023-04-28T22:05:42.565Z,5.79
2023-04-28T22:08:09.577Z,5.77
2023-04-28T22:10:37.069Z,5.75
2023-04-28T22:13:05.268Z,5.72
2023-04-28T22:15:32.999Z,5.69
2023-04-28T22:18:05.520Z,5.67
2023-04-28T22:20:32.929Z,5.64
2023-04-28T22:23:00.328Z,5.60
2023-04-28T22:25:27.552Z,5.55
2023-04-28T22:27:54.830Z,5.53
2023-04-28T22:30:24.338Z,5.50
2023-04-28T22:32:52.822Z,5.49
2023-04-28T22:35:19.888Z,5.47
2023-04-28T22:37:46.984Z,5.45
2023-04-28T22:40:16.792Z,5.43
2023-04-28T22:42:44.111Z,5.41
2023-04-28T22:45:11.960Z,5.39
2023-04-28T22:47:40.851Z,5.38
2023-04-28T22:50:09.378Z,5.35
2023-04-28T22:52:36.673Z,5.31
2023-04-28T22:55:03.747Z,5.26
2023-04-28T22:57:30.870Z,5.22
2023-04-28T22:59:58.226Z,5.20
2023-04-28T23:02:25.469Z,5.17
2023-04-28T23:04:52.849Z,5.12
2023-04-28T23:07:19.790Z,5.09
2023-04-28T23:09:46.885Z,5.06
2023-04-28T23:12:14.009Z,5.04
2023-04-28T23:14:41.042Z,5.02
2023-04-28T23:17:08.031Z,4.98
2023-04-28T23:19:47.401Z,4.96
2023-04-28T23:22:14.424Z,4.95
2023-04-28T23:24:42.564Z,4.93
2023-04-28T23:27:09.673Z,4.90
2023-04-28T23:29:36.723Z,4.88
2023-04-28T23:32:04.413Z,4.85
2023-04-28T23:34:31.506Z,4.83
2023-04-28T23:36:58.632Z,4.81
2023-04-28T23:39:25.885Z,4.78
2023-04-28T23:41:53.006Z,4.75
2023-04-28T23:44:19.996Z,4.73
2023-04-28T23:46:47.347Z,4.70
2023-04-28T23:49:14.329Z,4.66
2023-04-28T23:51:41.290Z,4.62
2023-04-28T23:54:10.719Z,4.59
2023-04-28T23:56:37.767Z,4.56
2023-04-28T23:59:05.697Z,4.54
